Time;durP1;ratioP1;P1;durP2;ratioP2;P2;SDS_P1;SDS_P2;PMS_P1;PMS_P2;Temp;Humidity;BMP_temperature;BMP_pressure;BME280_temperature;BME280_humidity;BME280_pressure;Samples;Min_cycle;Max_cycle;Signal;HPM_P1;HPM_P2
2023/03/26 00:01:14;;;;;;;7.20;2.13;;;;;;;3.85;100.00;93479.47;5072585;28;20095;-63
2023/03/26 00:03:43;;;;;;;4.90;1.98;;;;;;;3.85;100.00;93466.69;5068078;28;20041;-63
2023/03/26 00:06:13;;;;;;;6.50;2.70;;;;;;;3.89;100.00;93470.19;5054802;28;20051;-64
2023/03/26 00:08:41;;;;;;;5.50;2.50;;;;;;;3.80;100.00;93465.13;5072982;28;20044;-64
2023/03/26 00:11:10;;;;;;;4.28;1.85;;;;;;;3.80;100.00;93462.41;5056162;28;20584;-64
2023/03/26 00:13:37;;;;;;;5.38;1.88;;;;;;;3.81;100.00;93463.19;5061272;28;20052;-63
2023/03/26 00:16:04;;;;;;;5.93;1.80;;;;;;;3.80;100.00;93473.25;5072578;28;20040;-63
2023/03/26 00:18:31;;;;;;;5.60;2.03;;;;;;;3.78;100.00;93467.44;5064350;28;20367;-63
2023/03/26 00:20:58;;;;;;;8.40;2.00;;;;;;;3.79;100.00;93463.56;5066678;28;20037;-64
2023/03/26 00:23:27;;;;;;;8.88;3.28;;;;;;;3.78;100.00;93464.72;5064746;28;21546;-63
2023/03/26 00:25:54;;;;;;;5.72;2.72;;;;;;;3.80;100.00;93464.31;5065973;28;20059;-65
2023/03/26 00:28:23;;;;;;;5.28;2.20;;;;;;;3.82;100.00;93456.56;5072416;28;20377;-64
2023/03/26 00:30:57;;;;;;;6.25;2.53;;;;;;;3.80;100.00;93459.69;5059027;28;20101;-64
2023/03/26 00:33:24;;;;;;;4.43;2.37;;;;;;;3.80;100.00;93456.19;5054091;28;20040;-63
2023/03/26 00:35:52;;;;;;;6.13;2.53;;;;;;;3.78;100.00;93458.50;5072727;28;20040;-63
2023/03/26 00:38:21;;;;;;;9.23;2.58;;;;;;;3.79;100.00;93457.34;5070026;28;20043;-63
2023/03/26 00:40:49;;;;;;;7.15;2.80;;;;;;;3.84;100.00;93454.25;5072654;28;20044;-63
2023/03/26 00:43:18;;;;;;;7.70;2.28;;;;;;;3.86;100.00;93448.44;5059334;28;20477;-63
2023/03/26 00:45:55;;;;;;;7.23;2.03;;;;;;;3.90;100.00;93451.94;5084428;28;20059;-62
2023/03/26 00:48:24;;;;;;;6.53;2.10;;;;;;;3.69;100.00;93448.00;5066741;28;20043;-62
2023/03/26 00:51:10;;;;;;;6.60;2.20;;;;;;;3.83;100.00;93449.22;5071985;28;20074;-62
2023/03/26 00:53:37;;;;;;;7.47;1.90;;;;;;;3.70;100.00;93440.66;5072052;28;20037;-62
2023/03/26 00:56:05;;;;;;;6.13;2.30;;;;;;;3.73;100.00;93434.47;5063008;28;20064;-64
2023/03/26 00:58:32;;;;;;;5.77;1.90;;;;;;;3.66;100.00;93440.63;5071720;28;20534;-62
2023/03/26 01:01:02;;;;;;;4.78;1.83;;;;;;;3.79;100.00;93433.69;5071773;28;20040;-64
2023/03/26 01:03:34;;;;;;;8.20;2.22;;;;;;;3.74;100.00;93431.38;5067072;28;20439;-64
2023/03/26 01:06:06;;;;;;;4.10;1.50;;;;;;;3.56;100.00;93422.38;5052166;28;20432;-62
2023/03/26 01:08:41;;;;;;;10.55;4.50;;;;;;;3.39;100.00;93426.59;5070802;28;20037;-62
2023/03/26 01:11:20;;;;;;;11.17;4.07;;;;;;;3.36;100.00;93425.44;5056874;28;20043;-63
2023/03/26 01:13:51;;;;;;;11.30;3.60;;;;;;;3.53;100.00;93423.16;5071731;28;20036;-65
2023/03/26 01:16:23;;;;;;;8.75;2.92;;;;;;;3.63;100.00;93419.69;5054027;28;20068;-64
2023/03/26 01:18:51;;;;;;;6.60;2.50;;;;;;;3.66;100.00;93431.72;5051607;28;20041;-63
2023/03/26 01:21:28;;;;;;;7.00;2.60;;;;;;;3.67;100.00;93417.78;5064781;28;20063;-62
2023/03/26 01:24:04;;;;;;;7.77;3.07;;;;;;;3.62;100.00;93428.22;5065178;28;20042;-63
2023/03/26 01:26:37;;;;;;;7.45;2.63;;;;;;;3.42;100.00;93414.19;5053751;28;20644;-64
2023/03/26 01:29:09;;;;;;;8.95;3.28;;;;;;;3.56;100.00;93423.19;5070059;28;20109;-64
2023/03/26 01:31:46;;;;;;;9.02;3.10;;;;;;;3.72;100.00;93411.19;5067983;28;20039;-63
2023/03/26 01:34:21;;;;;;;7.78;3.42;;;;;;;3.77;100.00;93405.41;5061859;28;20051;-63
2023/03/26 01:37:06;;;;;;;15.97;6.80;;;;;;;3.83;100.00;93401.13;5066311;28;20048;-62
2023/03/26 01:40:04;;;;;;;9.82;3.70;;;;;;;3.89;100.00;93406.97;5066705;28;20317;-62
2023/03/26 01:42:54;;;;;;;7.80;3.55;;;;;;;3.95;100.00;93397.28;5059699;28;20252;-64
2023/03/26 01:45:26;;;;;;;8.00;3.00;;;;;;;3.91;100.00;93394.56;5050713;28;20049;-63
2023/03/26 01:47:54;;;;;;;8.05;2.92;;;;;;;3.95;100.00;93391.84;5064208;28;20480;-63
2023/03/26 01:50:21;;;;;;;8.23;3.20;;;;;;;3.78;100.00;93380.59;5062239;28;20040;-65
2023/03/26 01:52:48;;;;;;;6.95;2.97;;;;;;;3.90;100.00;93378.66;5077694;28;20392;-63
2023/03/26 01:55:15;;;;;;;6.60;2.65;;;;;;;3.79;100.00;93373.22;5056123;28;20101;-63
2023/03/26 01:58:01;;;;;;;8.55;2.90;;;;;;;3.70;100.00;93362.75;5058954;28;20041;-63
2023/03/26 02:00:32;;;;;;;7.30;3.13;;;;;;;3.76;100.00;93349.53;5058295;28;20784;-63
2023/03/26 02:03:30;;;;;;;9.37;3.40;;;;;;;3.79;100.00;93349.56;5070428;28;20040;-63
2023/03/26 02:06:14;;;;;;;10.30;4.53;;;;;;;3.90;100.00;93360.41;5052967;28;20115;-63
2023/03/26 02:08:47;;;;;;;9.10;3.45;;;;;;;3.79;100.00;93349.56;5057512;28;20903;-63
2023/03/26 02:11:14;;;;;;;7.00;2.90;;;;;;;3.73;100.00;93331.34;5063389;28;20053;-63
2023/03/26 02:13:45;;;;;;;8.90;3.20;;;;;;;3.76;100.00;93316.97;5050659;28;20037;-63
2023/03/26 02:16:15;;;;;;;8.27;3.23;;;;;;;3.82;100.00;93325.53;5056000;28;20028;-63
2023/03/26 02:18:50;;;;;;;6.75;2.92;;;;;;;3.87;100.00;93311.59;5069966;28;20057;-63
2023/03/26 02:21:20;;;;;;;6.60;3.03;;;;;;;3.89;100.00;93312.72;5056492;28;20397;-63
2023/03/26 02:23:49;;;;;;;9.55;2.50;;;;;;;3.94;100.00;93308.84;5070593;28;20036;-63
2023/03/26 02:26:18;;;;;;;8.75;3.10;;;;;;;3.95;100.00;93302.28;5064481;28;20512;-62
2023/03/26 02:28:45;;;;;;;6.77;2.80;;;;;;;4.00;100.00;93289.09;5063160;28;20040;-63
2023/03/26 02:31:12;;;;;;;7.03;2.65;;;;;;;4.04;100.00;93282.88;5063559;28;20474;-63
2023/03/26 02:33:39;;;;;;;6.55;3.22;;;;;;;4.04;100.00;93274.72;5050181;28;20105;-63
2023/03/26 02:36:07;;;;;;;7.20;2.72;;;;;;;3.93;100.00;93267.34;5067998;28;20070;-62
2023/03/26 02:38:34;;;;;;;8.35;3.38;;;;;;;3.97;100.00;93270.09;5078314;28;20392;-63
2023/03/26 02:41:01;;;;;;;6.90;2.60;;;;;;;3.96;100.00;93263.88;5072251;28;20086;-60
2023/03/26 02:43:28;;;;;;;10.23;3.30;;;;;;;3.98;100.00;93268.91;5070359;28;20037;-62
2023/03/26 02:45:56;;;;;;;6.75;3.10;;;;;;;4.01;100.00;93262.72;5056425;28;20086;-62
2023/03/26 02:48:23;;;;;;;10.05;3.50;;;;;;;3.85;100.00;93262.34;5058565;28;20043;-62
2023/03/26 02:50:53;;;;;;;8.48;3.47;;;;;;;3.69;100.00;93247.22;5065916;28;20044;-63
2023/03/26 02:53:20;;;;;;;6.70;2.80;;;;;;;3.32;100.00;93244.84;5069434;28;20539;-63
2023/03/26 02:55:47;;;;;;;6.78;3.00;;;;;;;3.32;100.00;93239.44;5067098;28;20058;-64
2023/03/26 02:58:16;;;;;;;9.02;3.42;;;;;;;3.48;100.00;93228.22;5056640;28;20059;-63
2023/03/26 03:00:45;;;;;;;8.38;3.05;;;;;;;3.57;100.00;93232.09;5069682;28;20093;-63
2023/03/26 03:03:12;;;;;;;7.28;2.72;;;;;;;3.47;100.00;93223.97;5066749;28;20036;-63
2023/03/26 03:05:41;;;;;;;6.67;3.17;;;;;;;3.54;100.00;93221.22;5069679;28;20412;-63
2023/03/26 03:08:09;;;;;;;8.18;3.00;;;;;;;3.65;100.00;93218.53;5066692;28;20417;-64
2023/03/26 03:10:36;;;;;;;9.68;3.33;;;;;;;3.66;100.00;93217.34;5058587;28;20427;-65
2023/03/26 03:13:06;;;;;;;8.65;3.53;;;;;;;3.65;100.00;93211.16;5069278;28;20067;-65
2023/03/26 03:15:33;;;;;;;6.97;3.40;;;;;;;3.76;100.00;93219.28;5067911;28;20397;-63
2023/03/26 03:18:01;;;;;;;11.07;3.10;;;;;;;3.58;100.00;93225.50;5057649;28;20040;-60
2023/03/26 03:20:29;;;;;;;9.80;3.25;;;;;;;3.64;100.00;93223.16;5068335;28;20115;-63
2023/03/26 03:22:55;;;;;;;7.30;3.13;;;;;;;3.72;100.00;93205.75;5069673;28;20039;-64
2023/03/26 03:25:24;;;;;;;7.18;3.00;;;;;;;3.76;100.00;93208.44;5069234;28;20044;-63
2023/03/26 03:27:52;;;;;;;7.95;3.05;;;;;;;3.63;100.00;93208.06;5066627;28;20089;-63
2023/03/26 03:30:19;;;;;;;7.87;2.70;;;;;;;3.64;100.00;93204.16;5057179;28;20093;-63
2023/03/26 03:32:46;;;;;;;6.15;2.45;;;;;;;3.71;100.00;93195.28;5068842;28;20033;-63
2023/03/26 03:35:13;;;;;;;6.97;2.70;;;;;;;3.77;100.00;93191.75;5068964;28;20045;-63
2023/03/26 03:37:40;;;;;;;10.50;2.63;;;;;;;3.86;100.00;93191.34;5069914;28;20044;-65
2023/03/26 03:40:09;;;;;;;8.15;2.70;;;;;;;3.92;100.00;93191.72;5069110;28;20042;-63
2023/03/26 03:42:36;;;;;;;5.00;2.60;;;;;;;3.93;100.00;93185.94;5069273;28;20028;-63
2023/03/26 03:45:05;;;;;;;6.75;2.58;;;;;;;3.90;100.00;93181.25;5064307;28;20405;-63
2023/03/26 03:47:32;;;;;;;5.18;2.88;;;;;;;3.97;100.00;93178.53;5058975;28;20044;-64
2023/03/26 03:49:59;;;;;;;5.40;2.42;;;;;;;4.06;100.00;93185.50;5068855;28;20508;-63
2023/03/26 03:52:27;;;;;;;9.55;3.00;;;;;;;3.98;100.00;93174.69;5077373;28;20040;-61
2023/03/26 03:54:56;;;;;;;7.87;2.60;;;;;;;3.99;100.00;93167.31;5053378;28;20041;-61
2023/03/26 03:57:23;;;;;;;7.55;2.60;;;;;;;4.07;100.00;93165.34;5047379;28;20037;-61
2023/03/26 03:59:49;;;;;;;10.15;3.13;;;;;;;4.04;100.00;93168.84;5063630;28;20044;-61
2023/03/26 04:02:24;;;;;;;7.40;3.00;;;;;;;4.05;100.00;93167.69;5048643;28;20044;-66
2023/03/26 04:04:52;;;;;;;10.10;3.10;;;;;;;4.07;100.00;93162.63;5067847;28;20400;-65
2023/03/26 04:07:19;;;;;;;9.03;2.90;;;;;;;4.17;100.00;93161.81;5068570;28;20050;-63
2023/03/26 04:09:46;;;;;;;7.30;2.85;;;;;;;4.24;100.00;93171.88;5067160;28;20036;-62
2023/03/26 04:12:12;;;;;;;7.80;3.30;;;;;;;4.23;100.00;93168.41;5048276;28;20033;-64
2023/03/26 04:14:39;;;;;;;6.97;3.38;;;;;;;4.25;100.00;93176.16;5055733;28;20038;-62
2023/03/26 04:17:06;;;;;;;9.73;3.13;;;;;;;4.22;100.00;93174.97;5055189;28;20067;-63
2023/03/26 04:19:33;;;;;;;8.77;3.13;;;;;;;4.25;100.00;93168.00;5052565;28;20493;-62
2023/03/26 04:22:01;;;;;;;8.68;2.78;;;;;;;4.05;100.00;93156.81;5068907;28;20043;-63
2023/03/26 04:24:28;;;;;;;6.97;2.72;;;;;;;3.89;100.00;93158.00;5067992;28;20631;-62
2023/03/26 04:26:57;;;;;;;7.78;2.58;;;;;;;3.83;100.00;93147.97;5068717;28;20035;-61
2023/03/26 04:29:26;;;;;;;6.65;2.85;;;;;;;3.93;100.00;93139.00;5053951;28;20041;-62
2023/03/26 04:32:05;;;;;;;8.70;3.00;;;;;;;4.05;100.00;93140.53;5057084;28;20478;-62
2023/03/26 04:34:33;;;;;;;8.68;2.78;;;;;;;4.08;100.00;93142.44;5066177;28;20728;-65
2023/03/26 04:37:02;;;;;;;8.43;3.15;;;;;;;4.14;100.00;93144.34;5057257;28;20040;-62
2023/03/26 04:39:32;;;;;;;11.38;2.88;;;;;;;4.17;100.00;93153.69;5069850;28;21349;-62
2023/03/26 04:41:59;;;;;;;7.43;2.55;;;;;;;4.29;100.00;93147.03;5050557;28;20086;-62
2023/03/26 04:44:29;;;;;;;8.67;2.70;;;;;;;4.38;100.00;93134.56;5051477;28;20489;-62
2023/03/26 04:46:55;;;;;;;8.35;3.10;;;;;;;4.26;100.00;93123.38;5067676;28;20040;-64
2023/03/26 04:49:22;;;;;;;11.20;3.45;;;;;;;3.73;100.00;93125.09;5063479;28;20474;-63
2023/03/26 04:51:49;;;;;;;8.43;3.00;;;;;;;3.83;100.00;93127.00;5083125;28;20029;-61
2023/03/26 04:54:21;;;;;;;9.38;3.35;;;;;;;4.06;100.00;93123.06;5061599;28;20037;-62
2023/03/26 04:56:56;;;;;;;8.40;3.20;;;;;;;4.20;100.00;93104.78;5070210;28;20207;-62
2023/03/26 04:59:33;;;;;;;15.35;4.40;;;;;;;4.27;100.00;93095.81;5072115;28;20047;-61
2023/03/26 05:02:01;;;;;;;13.90;4.97;;;;;;;4.38;100.00;93091.09;5072282;28;20040;-62
2023/03/26 05:04:28;;;;;;;15.90;5.70;;;;;;;4.45;100.00;93081.34;5070196;28;21962;-62
2023/03/26 05:06:57;;;;;;;12.50;4.95;;;;;;;4.46;100.00;93074.78;5059665;28;20036;-62
2023/03/26 05:09:24;;;;;;;12.33;4.80;;;;;;;4.53;100.00;93072.03;5071771;28;20044;-63
2023/03/26 05:11:51;;;;;;;9.90;3.45;;;;;;;4.55;100.00;93061.53;5071993;28;20289;-64
2023/03/26 05:14:18;;;;;;;8.82;3.08;;;;;;;4.61;100.00;93059.94;5051630;28;20075;-62
2023/03/26 05:16:47;;;;;;;8.05;2.70;;;;;;;4.67;100.00;93054.81;5064081;28;20036;-65
2023/03/26 05:19:14;;;;;;;8.90;2.92;;;;;;;4.65;100.00;93046.31;5071030;28;20037;-62
2023/03/26 05:21:40;;;;;;;6.60;2.83;;;;;;;4.64;100.00;93048.25;5071872;28;20040;-62
2023/03/26 05:24:07;;;;;;;7.82;2.63;;;;;;;4.49;100.00;93047.59;5069800;28;20089;-62
2023/03/26 05:26:35;;;;;;;7.53;2.50;;;;;;;4.40;100.00;93030.94;5071707;28;20040;-64
2023/03/26 05:29:03;;;;;;;9.45;2.60;;;;;;;4.20;100.00;93028.75;5067770;28;20048;-62
2023/03/26 05:31:30;;;;;;;6.68;2.60;;;;;;;4.16;100.00;93033.41;5051402;28;20028;-62
2023/03/26 05:33:59;;;;;;;9.93;3.17;;;;;;;4.24;100.00;93028.72;5051612;28;20444;-64
2023/03/26 05:36:27;;;;;;;17.27;8.23;;;;;;;4.23;100.00;93029.88;5055824;28;20036;-64
2023/03/26 05:38:54;;;;;;;12.02;4.53;;;;;;;4.25;100.00;93018.63;5082098;28;20040;-62
2023/03/26 05:41:20;;;;;;;9.00;2.80;;;;;;;4.24;100.00;93015.13;5070806;28;20049;-65
2023/03/26 05:43:47;;;;;;;8.65;2.92;;;;;;;4.19;100.00;93002.75;5071218;28;20443;-62
2023/03/26 05:46:15;;;;;;;8.17;3.03;;;;;;;4.15;100.00;93007.44;5070755;28;20048;-62
2023/03/26 05:48:42;;;;;;;9.82;2.85;;;;;;;4.33;100.00;93004.59;5071486;28;20037;-65
2023/03/26 05:51:09;;;;;;;10.73;3.22;;;;;;;4.48;100.00;93001.78;5069651;28;20074;-63
2023/03/26 05:53:35;;;;;;;9.15;3.47;;;;;;;4.57;100.00;92997.47;5059285;28;20045;-63
2023/03/26 05:56:03;;;;;;;7.07;3.25;;;;;;;4.56;100.00;92992.41;5053811;28;20053;-64
2023/03/26 05:58:33;;;;;;;8.63;3.13;;;;;;;4.59;100.00;92997.81;5071180;28;20073;-63
2023/03/26 06:01:04;;;;;;;12.82;6.88;;;;;;;4.70;100.00;92988.81;5059162;28;20048;-63
2023/03/26 06:03:33;;;;;;;17.58;6.63;;;;;;;4.52;100.00;92992.44;5070440;28;20680;-63
2023/03/26 06:06:00;;;;;;;12.35;4.10;;;;;;;4.60;100.00;92995.88;5070767;28;20396;-64
2023/03/26 06:08:27;;;;;;;9.45;3.25;;;;;;;4.51;100.00;92982.75;5068900;28;20765;-66
2023/03/26 06:10:58;;;;;;;7.53;3.10;;;;;;;4.50;100.00;92980.44;5066564;28;20090;-62
2023/03/26 06:13:25;;;;;;;10.90;2.90;;;;;;;4.57;100.00;92974.94;5061183;28;20059;-63
2023/03/26 06:15:52;;;;;;;9.05;2.58;;;;;;;4.63;100.00;92975.28;5071031;28;20033;-63
2023/03/26 06:18:19;;;;;;;8.52;2.90;;;;;;;4.47;100.00;92965.72;5059437;28;20048;-63
2023/03/26 06:20:46;;;;;;;8.63;3.22;;;;;;;4.56;100.00;92965.25;5067760;28;20041;-64
2023/03/26 06:23:12;;;;;;;9.20;2.83;;;;;;;4.61;100.00;92967.53;5070060;28;20477;-63
2023/03/26 06:25:40;;;;;;;8.23;3.13;;;;;;;4.66;100.00;92963.63;5054628;28;20052;-63
2023/03/26 06:28:06;;;;;;;9.43;3.35;;;;;;;4.74;100.00;92959.66;5059606;28;20040;-63
2023/03/26 06:30:33;;;;;;;7.60;2.90;;;;;;;4.77;100.00;92950.72;5067948;28;20046;-64
2023/03/26 06:33:00;;;;;;;7.85;3.00;;;;;;;4.75;100.00;92923.16;5058744;28;20043;-66
2023/03/26 06:35:28;;;;;;;8.97;2.80;;;;;;;4.70;100.00;92915.44;5069435;28;21526;-63
2023/03/26 06:37:56;;;;;;;7.47;2.60;;;;;;;4.78;100.00;92916.91;5057669;28;20086;-63
2023/03/26 06:40:23;;;;;;;8.20;3.88;;;;;;;4.72;100.00;92922.00;5059069;28;20048;-63
2023/03/26 06:42:50;;;;;;;8.75;2.85;;;;;;;4.78;100.00;92922.34;5064611;28;20044;-64
2023/03/26 06:45:36;;;;;;;9.93;3.33;;;;;;;4.70;100.00;92920.88;5069184;28;20037;-64
2023/03/26 06:48:03;;;;;;;8.23;3.03;;;;;;;4.86;100.00;92912.94;5101889;28;20040;-64
2023/03/26 06:50:31;;;;;;;9.98;2.90;;;;;;;4.91;100.00;92911.72;5075958;28;20472;-63
2023/03/26 06:52:58;;;;;;;8.57;2.85;;;;;;;4.93;100.00;92918.31;5072282;28;20040;-62
2023/03/26 06:55:25;;;;;;;7.93;2.72;;;;;;;4.73;100.00;92915.41;5061407;28;20105;-62
2023/03/26 06:57:54;;;;;;;7.25;3.08;;;;;;;4.70;100.00;92905.34;5063086;28;20066;-62
2023/03/26 07:00:20;;;;;;;10.40;2.70;;;;;;;4.65;100.00;92908.50;5056708;28;20052;-62
2023/03/26 07:02:47;;;;;;;9.15;3.35;;;;;;;4.68;100.00;92904.97;5069473;28;20039;-62
2023/03/26 07:05:14;;;;;;;10.23;3.83;;;;;;;4.75;100.00;92888.59;5069235;28;20385;-62
2023/03/26 07:07:41;;;;;;;7.00;2.95;;;;;;;4.85;100.00;92883.44;5067949;28;20040;-62
2023/03/26 07:10:13;;;;;;;8.70;3.78;;;;;;;4.98;100.00;92873.59;5049320;28;20091;-63
2023/03/26 07:12:41;;;;;;;7.63;3.50;;;;;;;5.08;100.00;92875.44;5068730;28;20032;-63
2023/03/26 07:15:09;;;;;;;9.20;4.47;;;;;;;4.89;100.00;92884.19;5069149;28;20044;-64
2023/03/26 07:17:36;;;;;;;10.48;4.15;;;;;;;4.93;100.00;92880.25;5069411;28;20389;-64
2023/03/26 07:20:07;;;;;;;9.07;3.40;;;;;;;4.97;100.00;92886.44;5068848;28;20048;-63
2023/03/26 07:22:34;;;;;;;9.95;3.72;;;;;;;4.92;100.00;92894.25;5064222;28;20517;-62
2023/03/26 07:25:01;;;;;;;8.73;3.30;;;;;;;4.92;100.00;92884.16;5047755;28;20049;-60
2023/03/26 07:27:54;;;;;;;7.55;3.10;;;;;;;4.84;100.00;92881.91;5062776;28;20029;-62
2023/03/26 07:30:35;;;;;;;7.43;3.50;;;;;;;4.77;100.00;92875.38;5049136;28;20037;-61
2023/03/26 07:33:33;;;;;;;7.88;3.75;;;;;;;4.83;100.00;92866.75;5057301;28;20058;-65
2023/03/26 07:36:03;;;;;;;7.45;3.75;;;;;;;4.89;100.00;92870.59;5060635;28;20037;-64
2023/03/26 07:38:48;;;;;;;7.43;3.00;;;;;;;4.93;100.00;92863.16;5068585;28;20071;-62
2023/03/26 07:41:40;;;;;;;7.63;3.47;;;;;;;5.07;100.00;92870.38;5067494;28;20116;-62
2023/03/26 07:44:28;;;;;;;8.07;3.80;;;;;;;4.95;100.00;92858.09;5049160;28;20053;-62
2023/03/26 07:46:56;;;;;;;8.88;3.30;;;;;;;4.95;100.00;92872.47;5057420;28;20037;-64
2023/03/26 07:49:22;;;;;;;9.07;4.03;;;;;;;4.85;100.00;92857.06;5055398;28;20037;-62
2023/03/26 07:51:49;;;;;;;13.20;3.80;;;;;;;4.90;100.00;92851.16;5076058;28;20046;-62
2023/03/26 07:54:16;;;;;;;6.35;3.67;;;;;;;4.86;100.00;92853.16;5054686;28;20075;-62
2023/03/26 07:56:58;;;;;;;7.75;4.25;;;;;;;4.89;100.00;92838.75;5068141;28;20041;-62
2023/03/26 07:59:39;;;;;;;8.38;3.67;;;;;;;4.98;100.00;92835.53;5067740;28;20093;-62
2023/03/26 08:02:40;;;;;;;9.10;3.83;;;;;;;4.96;100.00;92822.34;5064047;28;20047;-63
2023/03/26 08:05:17;;;;;;;7.67;3.60;;;;;;;5.13;100.00;92826.03;5060303;28;20101;-63
2023/03/26 08:08:37;;;;;;;8.02;3.80;;;;;;;5.10;100.00;92832.28;5067741;28;20419;-62
2023/03/26 08:11:11;;;;;;;8.02;3.92;;;;;;;5.17;100.00;92821.31;5017483;28;20397;-65
2023/03/26 08:14:07;;;;;;;6.55;3.67;;;;;;;5.38;100.00;92816.78;5048995;28;20482;-62
2023/03/26 08:16:40;;;;;;;7.55;3.97;;;;;;;5.45;100.00;92815.91;5057644;28;20369;-63
2023/03/26 08:19:12;;;;;;;6.80;3.60;;;;;;;5.91;100.00;92819.91;5071802;28;20036;-63
2023/03/26 08:22:10;;;;;;;7.35;3.70;;;;;;;5.87;100.00;92800.91;5071586;28;20052;-63
2023/03/26 08:25:03;;;;;;;6.85;3.92;;;;;;;5.74;100.00;92805.41;5049303;28;20686;-63
2023/03/26 08:27:39;;;;;;;7.95;3.67;;;;;;;5.98;100.00;92792.63;5058385;28;20478;-64
2023/03/26 08:30:20;;;;;;;6.78;3.78;;;;;;;5.94;100.00;92786.44;5052945;28;20051;-63
2023/03/26 08:32:59;;;;;;;6.43;3.50;;;;;;;6.08;100.00;92786.22;5067591;28;20033;-63
2023/03/26 08:35:27;;;;;;;6.50;3.72;;;;;;;5.98;100.00;92784.44;5070329;28;20408;-62
2023/03/26 08:37:54;;;;;;;6.75;3.83;;;;;;;5.74;100.00;92784.38;5071620;28;20058;-62
2023/03/26 08:40:57;;;;;;;8.25;3.55;;;;;;;5.58;100.00;92800.56;5072075;28;20113;-66
2023/03/26 08:43:58;;;;;;;8.50;4.47;;;;;;;5.46;100.00;92814.75;5059129;28;20040;-63
2023/03/26 08:46:56;;;;;;;7.37;4.40;;;;;;;5.31;100.00;92825.81;5058453;28;20077;-64
2023/03/26 08:50:24;;;;;;;7.38;4.10;;;;;;;5.35;100.00;92823.03;5058389;28;20033;-62
2023/03/26 08:53:45;;;;;;;6.32;3.55;;;;;;;5.29;100.00;92814.56;5036795;28;20045;-62
2023/03/26 08:56:52;;;;;;;5.85;3.72;;;;;;;5.51;100.00;92800.66;4969221;28;20176;-62
2023/03/26 08:59:56;;;;;;;6.05;3.30;;;;;;;5.74;100.00;92805.41;5083904;28;20408;-63
2023/03/26 09:02:54;;;;;;;5.70;2.77;;;;;;;5.64;100.00;92826.16;5043290;28;20086;-63
2023/03/26 09:05:24;;;;;;;4.40;2.33;;;;;;;5.63;100.00;92842.88;5042686;28;20049;-63
2023/03/26 09:08:06;;;;;;;5.15;2.67;;;;;;;5.74;100.00;92863.31;5048441;28;20514;-63
2023/03/26 09:10:36;;;;;;;5.65;3.05;;;;;;;6.09;100.00;92852.34;5045338;28;20574;-63
2023/03/26 09:13:08;;;;;;;4.93;2.58;;;;;;;6.40;100.00;92828.50;5044519;28;20049;-63
2023/03/26 09:16:00;;;;;;;4.97;2.30;;;;;;;6.62;100.00;92826.19;5032170;28;20370;-63
2023/03/26 09:18:45;;;;;;;4.00;2.40;;;;;;;6.59;100.00;92840.63;5034059;28;20448;-63
2023/03/26 09:21:17;;;;;;;4.00;2.40;;;;;;;6.71;100.00;92842.75;5040306;28;20041;-64
2023/03/26 09:24:01;;;;;;;4.95;2.22;;;;;;;6.86;100.00;92839.75;5037034;28;20040;-62
2023/03/26 09:26:56;;;;;;;4.60;2.53;;;;;;;7.04;100.00;92840.19;5050854;28;20903;-63
2023/03/26 09:29:47;;;;;;;5.33;2.20;;;;;;;7.34;100.00;92822.81;5040340;28;20378;-63
2023/03/26 09:32:49;;;;;;;3.63;2.20;;;;;;;7.03;100.00;92827.75;5036503;28;20041;-62
2023/03/26 09:35:41;;;;;;;4.20;2.20;;;;;;;7.29;100.00;92836.22;5033758;28;20037;-63
2023/03/26 09:38:44;;;;;;;4.43;2.55;;;;;;;7.18;100.00;92837.19;5046615;28;20044;-63
2023/03/26 09:41:21;;;;;;;5.68;2.45;;;;;;;7.35;100.00;92835.28;5036035;28;20053;-62
2023/03/26 09:43:50;;;;;;;11.17;5.90;;;;;;;7.19;100.00;92830.53;5051329;28;20374;-64
2023/03/26 09:46:25;;;;;;;6.45;4.00;;;;;;;7.53;100.00;92815.81;5051108;28;20043;-63
2023/03/26 09:49:10;;;;;;;4.78;2.85;;;;;;;8.13;100.00;92831.25;5037893;28;20417;-63
2023/03/26 09:51:40;;;;;;;5.78;3.28;;;;;;;8.70;100.00;92824.41;5050105;28;20410;-63
2023/03/26 09:54:28;;;;;;;6.60;2.97;;;;;;;8.71;100.00;92823.22;5065116;28;20040;-62
2023/03/26 09:57:13;;;;;;;4.67;2.17;;;;;;;8.48;100.00;92810.53;5051061;28;20051;-63
2023/03/26 10:00:12;;;;;;;10.13;4.05;;;;;;;8.94;100.00;92803.06;5041077;28;20862;-64
2023/03/26 10:03:12;;;;;;;5.70;3.20;;;;;;;9.00;100.00;92797.84;5037287;28;20389;-62
2023/03/26 10:06:05;;;;;;;6.57;3.22;;;;;;;11.31;100.00;92781.97;5050171;28;21620;-63
2023/03/26 10:08:46;;;;;;;4.20;2.20;;;;;;;11.10;100.00;92788.97;5049883;28;21717;-65
2023/03/26 10:11:34;;;;;;;6.80;2.70;;;;;;;12.02;100.00;92783.25;5044851;28;20482;-63
2023/03/26 10:14:31;;;;;;;4.15;2.20;;;;;;;11.28;100.00;92782.09;5030578;28;20043;-60
2023/03/26 10:17:06;;;;;;;4.03;2.00;;;;;;;12.15;100.00;92780.41;5031055;28;20520;-63
2023/03/26 10:20:01;;;;;;;4.03;1.80;;;;;;;14.45;85.09;92793.25;5048851;28;20348;-63
2023/03/26 10:22:49;;;;;;;4.30;2.20;;;;;;;17.88;66.90;92777.06;5049696;28;21827;-64
2023/03/26 10:25:28;;;;;;;4.60;2.00;;;;;;;20.35;56.37;92771.88;5038655;28;20045;-64
2023/03/26 10:28:21;;;;;;;4.72;1.70;;;;;;;20.27;48.40;92775.69;5050647;28;20355;-63
2023/03/26 10:31:04;;;;;;;3.83;1.80;;;;;;;15.93;61.48;92770.00;5036219;28;20042;-63
2023/03/26 10:33:40;;;;;;;3.88;1.80;;;;;;;14.47;65.18;92765.19;5042931;28;20408;-65
2023/03/26 10:36:26;;;;;;;4.78;2.08;;;;;;;13.16;72.67;92771.53;5049851;28;20052;-62
2023/03/26 10:39:14;;;;;;;3.83;2.03;;;;;;;14.33;63.42;92770.16;5041420;28;20369;-62
2023/03/26 10:42:34;;;;;;;4.45;2.00;;;;;;;13.83;67.49;92777.25;5047499;28;20097;-64
2023/03/26 10:45:20;;;;;;;4.07;1.90;;;;;;;13.38;67.74;92771.34;5049711;28;20479;-61
2023/03/26 10:47:54;;;;;;;4.28;1.30;;;;;;;14.30;61.48;92773.84;5050117;28;20067;-63
2023/03/26 10:50:48;;;;;;;3.47;1.42;;;;;;;15.22;57.96;92764.22;5048259;28;20045;-63
2023/03/26 10:53:33;;;;;;;3.60;1.30;;;;;;;16.67;50.90;92758.78;5036916;28;20039;-65
2023/03/26 10:56:41;;;;;;;3.10;1.20;;;;;;;17.65;47.88;92746.31;5039101;28;20390;-67
2023/03/26 10:59:12;;;;;;;4.20;2.08;;;;;;;15.72;51.25;92760.84;5046866;28;20218;-64
2023/03/26 11:01:53;;;;;;;3.20;1.60;;;;;;;14.99;53.98;92776.84;5049864;28;20037;-65
2023/03/26 11:04:32;;;;;;;3.85;1.30;;;;;;;13.34;56.33;92784.53;5049386;28;20049;-64
2023/03/26 11:07:15;;;;;;;3.60;1.40;;;;;;;11.59;62.34;92780.13;5033701;28;20466;-63
2023/03/26 11:10:12;;;;;;;3.33;1.48;;;;;;;11.44;66.99;92784.63;5038917;28;20909;-63
2023/03/26 11:12:47;;;;;;;3.63;1.50;;;;;;;11.68;69.45;92782.16;5048738;28;21514;-63
2023/03/26 11:15:20;;;;;;;2.83;1.33;;;;;;;11.33;73.44;92800.75;5049058;28;20485;-63
2023/03/26 11:17:56;;;;;;;3.55;1.40;;;;;;;10.67;74.15;92793.19;5035663;28;20043;-63
2023/03/26 11:20:43;;;;;;;3.07;1.40;;;;;;;10.79;70.76;92806.13;5035828;28;20351;-63
2023/03/26 11:23:32;;;;;;;2.97;1.50;;;;;;;12.16;66.41;92790.19;5038917;28;20059;-64
2023/03/26 11:26:26;;;;;;;3.88;1.60;;;;;;;12.57;66.29;92793.66;5047972;28;20381;-64
2023/03/26 11:29:14;;;;;;;4.15;1.30;;;;;;;11.40;68.35;92790.25;5045822;28;20709;-66
2023/03/26 11:32:03;;;;;;;3.20;1.20;;;;;;;10.19;75.77;92819.81;5028589;28;20445;-64
2023/03/26 11:35:13;;;;;;;2.37;1.03;;;;;;;10.64;73.23;92801.56;5042756;28;20109;-64
2023/03/26 11:37:47;;;;;;;4.50;1.30;;;;;;;10.66;71.89;92805.38;5039359;28;20860;-62
2023/03/26 11:40:22;;;;;;;3.72;1.48;;;;;;;10.43;74.63;92808.53;5042180;28;20049;-63
2023/03/26 11:42:55;;;;;;;3.35;1.25;;;;;;;9.96;78.49;92780.56;5029674;28;20045;-63
2023/03/26 11:45:26;;;;;;;2.60;1.08;;;;;;;9.87;78.27;92788.69;5036312;28;20049;-63
2023/03/26 11:48:02;;;;;;;2.70;1.10;;;;;;;10.00;75.96;92799.66;5034184;28;20029;-63
2023/03/26 11:50:34;;;;;;;4.13;1.30;;;;;;;10.29;72.53;92791.28;5030112;28;20881;-63
2023/03/26 11:53:11;;;;;;;3.33;1.42;;;;;;;10.20;73.07;92785.69;5040138;28;20093;-61
2023/03/26 11:55:47;;;;;;;3.63;1.50;;;;;;;10.42;70.11;92769.34;5039325;28;20109;-63
2023/03/26 11:58:23;;;;;;;3.78;1.48;;;;;;;10.77;65.63;92783.84;5048949;28;20041;-63
2023/03/26 12:00:53;;;;;;;4.53;1.30;;;;;;;10.61;70.56;92783.25;5060899;28;20442;-64
2023/03/26 12:03:20;;;;;;;3.50;1.35;;;;;;;11.05;65.28;92795.03;5068659;28;20113;-63
2023/03/26 12:05:56;;;;;;;3.15;1.38;;;;;;;10.94;65.00;92791.91;5068931;28;20040;-63
2023/03/26 12:08:36;;;;;;;2.75;1.20;;;;;;;10.59;65.69;92773.47;5050008;28;20041;-65